sensor_id;sensor_type;location;lat;lon;timestamp;temperature;humidity
32296;DHT22;18781;51.550;5.418;2023-01-10T00:01:53;9.10;71.90
32296;DHT22;18781;51.550;5.418;2023-01-10T00:04:21;9.00;71.90
32296;DHT22;18781;51.550;5.418;2023-01-10T00:06:46;9.00;71.90
32296;DHT22;18781;51.550;5.418;2023-01-10T00:09:12;9.00;71.90
32296;DHT22;18781;51.550;5.418;2023-01-10T00:11:38;9.00;72.00
32296;DHT22;18781;51.550;5.418;2023-01-10T00:14:22;9.00;72.10
32296;DHT22;18781;51.550;5.418;2023-01-10T00:16:48;8.90;72.10
32296;DHT22;18781;51.550;5.418;2023-01-10T00:19:13;8.90;72.20
32296;DHT22;18781;51.550;5.418;2023-01-10T00:21:39;8.90;72.20
32296;DHT22;18781;51.550;5.418;2023-01-10T00:24:05;8.90;72.20
32296;DHT22;18781;51.550;5.418;2023-01-10T00:26:44;8.90;72.10
32296;DHT22;18781;51.550;5.418;2023-01-10T00:29:21;8.90;72.10
32296;DHT22;18781;51.550;5.418;2023-01-10T00:31:47;8.90;72.10
32296;DHT22;18781;51.550;5.418;2023-01-10T00:34:13;8.90;72.00
32296;DHT22;18781;51.550;5.418;2023-01-10T00:36:39;8.80;72.00
32296;DHT22;18781;51.550;5.418;2023-01-10T00:39:04;8.80;72.00
32296;DHT22;18781;51.550;5.418;2023-01-10T00:41:30;8.80;72.00
32296;DHT22;18781;51.550;5.418;2023-01-10T00:44:14;8.80;72.00
32296;DHT22;18781;51.550;5.418;2023-01-10T00:46:40;8.70;71.90
32296;DHT22;18781;51.550;5.418;2023-01-10T00:49:06;8.70;71.90
32296;DHT22;18781;51.550;5.418;2023-01-10T00:51:32;8.70;72.00
32296;DHT22;18781;51.550;5.418;2023-01-10T00:53:58;8.70;72.10
32296;DHT22;18781;51.550;5.418;2023-01-10T00:56:24;8.70;72.00
32296;DHT22;18781;51.550;5.418;2023-01-10T00:58:49;8.70;72.10
32296;DHT22;18781;51.550;5.418;2023-01-10T01:01:15;8.60;72.00
32296;DHT22;18781;51.550;5.418;2023-01-10T01:03:40;8.60;72.00
32296;DHT22;18781;51.550;5.418;2023-01-10T01:06:07;8.60;72.10
32296;DHT22;18781;51.550;5.418;2023-01-10T01:08:33;8.60;72.10
32296;DHT22;18781;51.550;5.418;2023-01-10T01:10:58;8.60;72.20
32296;DHT22;18781;51.550;5.418;2023-01-10T01:13:24;8.60;72.20
32296;DHT22;18781;51.550;5.418;2023-01-10T01:15:50;8.60;72.20
32296;DHT22;18781;51.550;5.418;2023-01-10T01:18:18;8.60;72.20
32296;DHT22;18781;51.550;5.418;2023-01-10T01:20:45;8.60;72.40
32296;DHT22;18781;51.550;5.418;2023-01-10T01:23:11;8.60;72.40
32296;DHT22;18781;51.550;5.418;2023-01-10T01:25:37;8.60;72.40
32296;DHT22;18781;51.550;5.418;2023-01-10T01:28:03;8.60;72.40
32296;DHT22;18781;51.550;5.418;2023-01-10T01:30:29;8.50;72.40
32296;DHT22;18781;51.550;5.418;2023-01-10T01:32:54;8.50;72.40
32296;DHT22;18781;51.550;5.418;2023-01-10T01:35:20;8.60;72.50
32296;DHT22;18781;51.550;5.418;2023-01-10T01:37:45;8.50;72.40
32296;DHT22;18781;51.550;5.418;2023-01-10T01:40:16;8.50;72.40
32296;DHT22;18781;51.550;5.418;2023-01-10T01:42:43;8.50;72.50
32296;DHT22;18781;51.550;5.418;2023-01-10T01:47:42;8.50;72.70
32296;DHT22;18781;51.550;5.418;2023-01-10T01:50:25;8.50;72.70
32296;DHT22;18781;51.550;5.418;2023-01-10T01:52:53;8.50;72.90
32296;DHT22;18781;51.550;5.418;2023-01-10T01:55:21;8.50;73.00
32296;DHT22;18781;51.550;5.418;2023-01-10T01:57:51;8.50;73.10
32296;DHT22;18781;51.550;5.418;2023-01-10T02:00:17;8.60;73.20
32296;DHT22;18781;51.550;5.418;2023-01-10T02:02:55;8.50;73.20
32296;DHT22;18781;51.550;5.418;2023-01-10T02:05:23;8.60;73.50
32296;DHT22;18781;51.550;5.418;2023-01-10T02:07:52;8.50;73.40
32296;DHT22;18781;51.550;5.418;2023-01-10T02:13:03;8.60;73.60
32296;DHT22;18781;51.550;5.418;2023-01-10T02:15:29;8.60;73.60
32296;DHT22;18781;51.550;5.418;2023-01-10T02:17:56;8.60;73.50
32296;DHT22;18781;51.550;5.418;2023-01-10T02:20:22;8.60;73.60
32296;DHT22;18781;51.550;5.418;2023-01-10T02:29:07;8.60;74.10
32296;DHT22;18781;51.550;5.418;2023-01-10T02:40:20;8.60;74.00
32296;DHT22;18781;51.550;5.418;2023-01-10T02:43:14;8.60;73.70
32296;DHT22;18781;51.550;5.418;2023-01-10T02:45:42;8.60;74.00
32296;DHT22;18781;51.550;5.418;2023-01-10T02:48:11;8.70;73.80
32296;DHT22;18781;51.550;5.418;2023-01-10T02:53:13;8.70;73.80
32296;DHT22;18781;51.550;5.418;2023-01-10T02:59:40;8.70;73.70
32296;DHT22;18781;51.550;5.418;2023-01-10T03:02:07;8.70;73.50
32296;DHT22;18781;51.550;5.418;2023-01-10T03:04:57;8.70;73.40
32296;DHT22;18781;51.550;5.418;2023-01-10T03:07:50;8.60;73.40
32296;DHT22;18781;51.550;5.418;2023-01-10T03:10:39;8.60;73.50
32296;DHT22;18781;51.550;5.418;2023-01-10T03:15:39;8.60;73.30
32296;DHT22;18781;51.550;5.418;2023-01-10T03:18:13;8.60;73.70
32296;DHT22;18781;51.550;5.418;2023-01-10T03:20:41;8.60;73.20
32296;DHT22;18781;51.550;5.418;2023-01-10T03:23:08;8.60;73.40
32296;DHT22;18781;51.550;5.418;2023-01-10T03:25:37;8.60;73.30
32296;DHT22;18781;51.550;5.418;2023-01-10T03:30:54;8.60;73.50
32296;DHT22;18781;51.550;5.418;2023-01-10T03:33:29;8.60;73.70
32296;DHT22;18781;51.550;5.418;2023-01-10T03:44:13;8.60;73.50
32296;DHT22;18781;51.550;5.418;2023-01-10T03:47:12;8.60;73.70
32296;DHT22;18781;51.550;5.418;2023-01-10T03:49:43;8.60;73.60
32296;DHT22;18781;51.550;5.418;2023-01-10T03:52:13;8.60;73.60
32296;DHT22;18781;51.550;5.418;2023-01-10T03:54:44;8.60;73.60
32296;DHT22;18781;51.550;5.418;2023-01-10T03:57:18;8.60;73.70
32296;DHT22;18781;51.550;5.418;2023-01-10T03:59:45;8.60;73.70
32296;DHT22;18781;51.550;5.418;2023-01-10T04:02:11;8.60;73.70
32296;DHT22;18781;51.550;5.418;2023-01-10T04:04:37;8.60;73.70
32296;DHT22;18781;51.550;5.418;2023-01-10T04:07:03;8.60;73.70
32296;DHT22;18781;51.550;5.418;2023-01-10T04:09:28;8.60;73.70
32296;DHT22;18781;51.550;5.418;2023-01-10T04:11:54;8.60;73.70
32296;DHT22;18781;51.550;5.418;2023-01-10T04:14:20;8.60;73.70
32296;DHT22;18781;51.550;5.418;2023-01-10T04:16:46;8.60;73.60
32296;DHT22;18781;51.550;5.418;2023-01-10T04:19:11;8.60;73.60
32296;DHT22;18781;51.550;5.418;2023-01-10T04:21:37;8.60;73.50
32296;DHT22;18781;51.550;5.418;2023-01-10T04:24:02;8.60;73.40
32296;DHT22;18781;51.550;5.418;2023-01-10T04:26:28;8.60;73.30
32296;DHT22;18781;51.550;5.418;2023-01-10T04:28:53;8.60;73.30
32296;DHT22;18781;51.550;5.418;2023-01-10T04:31:19;8.60;73.30
32296;DHT22;18781;51.550;5.418;2023-01-10T04:33:46;8.60;73.30
32296;DHT22;18781;51.550;5.418;2023-01-10T04:36:12;8.60;73.20
32296;DHT22;18781;51.550;5.418;2023-01-10T04:38:38;8.60;73.20
32296;DHT22;18781;51.550;5.418;2023-01-10T04:41:03;8.60;73.20
32296;DHT22;18781;51.550;5.418;2023-01-10T04:43:29;8.60;73.20
32296;DHT22;18781;51.550;5.418;2023-01-10T04:45:55;8.60;73.20
32296;DHT22;18781;51.550;5.418;2023-01-10T04:48:20;8.60;73.20
32296;DHT22;18781;51.550;5.418;2023-01-10T04:50:50;8.60;73.10
32296;DHT22;18781;51.550;5.418;2023-01-10T04:53:16;8.60;73.10
32296;DHT22;18781;51.550;5.418;2023-01-10T04:55:42;8.60;73.20
32296;DHT22;18781;51.550;5.418;2023-01-10T04:58:07;8.50;73.10
32296;DHT22;18781;51.550;5.418;2023-01-10T05:00:33;8.50;73.00
32296;DHT22;18781;51.550;5.418;2023-01-10T05:02:59;8.50;73.10
32296;DHT22;18781;51.550;5.418;2023-01-10T05:05:25;8.50;73.10
32296;DHT22;18781;51.550;5.418;2023-01-10T05:07:50;8.50;73.10
32296;DHT22;18781;51.550;5.418;2023-01-10T05:10:16;8.50;73.10
32296;DHT22;18781;51.550;5.418;2023-01-10T05:12:42;8.50;73.20
32296;DHT22;18781;51.550;5.418;2023-01-10T05:15:08;8.50;73.10
32296;DHT22;18781;51.550;5.418;2023-01-10T05:17:33;8.50;73.20
32296;DHT22;18781;51.550;5.418;2023-01-10T05:19:59;8.50;73.20
32296;DHT22;18781;51.550;5.418;2023-01-10T05:22:25;8.50;73.20
32296;DHT22;18781;51.550;5.418;2023-01-10T05:24:50;8.40;73.10
32296;DHT22;18781;51.550;5.418;2023-01-10T05:27:16;8.40;73.20
32296;DHT22;18781;51.550;5.418;2023-01-10T05:29:42;8.40;73.20
32296;DHT22;18781;51.550;5.418;2023-01-10T05:32:07;8.40;73.30
32296;DHT22;18781;51.550;5.418;2023-01-10T05:34:33;8.40;73.30
32296;DHT22;18781;51.550;5.418;2023-01-10T05:36:59;8.50;73.40
32296;DHT22;18781;51.550;5.418;2023-01-10T05:39:24;8.40;73.90
32296;DHT22;18781;51.550;5.418;2023-01-10T05:41:50;8.40;73.40
32296;DHT22;18781;51.550;5.418;2023-01-10T05:44:15;8.40;73.40
32296;DHT22;18781;51.550;5.418;2023-01-10T05:46:41;8.40;73.50
32296;DHT22;18781;51.550;5.418;2023-01-10T05:49:06;8.50;73.60
32296;DHT22;18781;51.550;5.418;2023-01-10T05:51:32;8.50;73.50
32296;DHT22;18781;51.550;5.418;2023-01-10T05:53:58;8.50;73.60
32296;DHT22;18781;51.550;5.418;2023-01-10T05:56:24;8.50;73.60
32296;DHT22;18781;51.550;5.418;2023-01-10T05:58:50;8.50;73.60
32296;DHT22;18781;51.550;5.418;2023-01-10T06:01:16;8.50;73.60
32296;DHT22;18781;51.550;5.418;2023-01-10T06:03:42;8.50;73.60
32296;DHT22;18781;51.550;5.418;2023-01-10T06:06:08;8.50;73.60
32296;DHT22;18781;51.550;5.418;2023-01-10T06:08:34;8.60;73.60
32296;DHT22;18781;51.550;5.418;2023-01-10T06:11:02;8.60;73.60
32296;DHT22;18781;51.550;5.418;2023-01-10T06:13:27;8.60;73.50
32296;DHT22;18781;51.550;5.418;2023-01-10T06:15:53;8.60;73.40
32296;DHT22;18781;51.550;5.418;2023-01-10T06:18:19;8.60;73.30
32296;DHT22;18781;51.550;5.418;2023-01-10T06:20:44;8.60;73.30
32296;DHT22;18781;51.550;5.418;2023-01-10T06:23:10;8.60;73.30
32296;DHT22;18781;51.550;5.418;2023-01-10T06:25:37;8.60;73.20
32296;DHT22;18781;51.550;5.418;2023-01-10T06:28:05;8.60;73.20
32296;DHT22;18781;51.550;5.418;2023-01-10T06:30:31;8.60;73.20
32296;DHT22;18781;51.550;5.418;2023-01-10T06:33:01;8.60;73.20
32296;DHT22;18781;51.550;5.418;2023-01-10T06:35:28;8.60;73.20
32296;DHT22;18781;51.550;5.418;2023-01-10T06:37:54;8.60;73.10
32296;DHT22;18781;51.550;5.418;2023-01-10T06:40:20;8.60;73.10
32296;DHT22;18781;51.550;5.418;2023-01-10T06:42:45;8.60;73.00
32296;DHT22;18781;51.550;5.418;2023-01-10T06:45:11;8.60;72.90
32296;DHT22;18781;51.550;5.418;2023-01-10T06:47:37;8.60;72.90
32296;DHT22;18781;51.550;5.418;2023-01-10T06:50:04;8.60;72.90
32296;DHT22;18781;51.550;5.418;2023-01-10T06:52:29;8.60;72.80
32296;DHT22;18781;51.550;5.418;2023-01-10T06:54:55;8.60;72.80
32296;DHT22;18781;51.550;5.418;2023-01-10T06:57:21;8.60;72.60
32296;DHT22;18781;51.550;5.418;2023-01-10T06:59:47;8.60;72.60
32296;DHT22;18781;51.550;5.418;2023-01-10T07:02:13;8.60;73.10
32296;DHT22;18781;51.550;5.418;2023-01-10T07:04:39;8.60;72.50
32296;DHT22;18781;51.550;5.418;2023-01-10T07:07:04;8.50;72.50
32296;DHT22;18781;51.550;5.418;2023-01-10T07:09:30;8.50;72.40
32296;DHT22;18781;51.550;5.418;2023-01-10T07:11:55;8.50;72.40
32296;DHT22;18781;51.550;5.418;2023-01-10T07:14:21;8.50;72.50
32296;DHT22;18781;51.550;5.418;2023-01-10T07:16:47;8.50;72.60
32296;DHT22;18781;51.550;5.418;2023-01-10T07:19:13;8.50;72.60
32296;DHT22;18781;51.550;5.418;2023-01-10T07:21:40;8.50;72.90
32296;DHT22;18781;51.550;5.418;2023-01-10T07:24:06;8.40;72.50
32296;DHT22;18781;51.550;5.418;2023-01-10T07:26:32;8.40;72.50
32296;DHT22;18781;51.550;5.418;2023-01-10T07:28:58;8.40;72.50
32296;DHT22;18781;51.550;5.418;2023-01-10T07:31:23;8.40;72.50
32296;DHT22;18781;51.550;5.418;2023-01-10T07:33:51;8.40;72.60
32296;DHT22;18781;51.550;5.418;2023-01-10T07:36:17;8.40;72.60
32296;DHT22;18781;51.550;5.418;2023-01-10T07:38:43;8.40;72.60
32296;DHT22;18781;51.550;5.418;2023-01-10T07:41:09;8.40;72.70
32296;DHT22;18781;51.550;5.418;2023-01-10T07:43:35;8.40;72.70
32296;DHT22;18781;51.550;5.418;2023-01-10T07:46:02;8.40;72.60
32296;DHT22;18781;51.550;5.418;2023-01-10T07:48:28;8.40;72.60
32296;DHT22;18781;51.550;5.418;2023-01-10T07:50:58;8.40;72.70
32296;DHT22;18781;51.550;5.418;2023-01-10T07:53:25;8.40;72.60
32296;DHT22;18781;51.550;5.418;2023-01-10T07:55:51;8.40;72.60
32296;DHT22;18781;51.550;5.418;2023-01-10T07:58:16;8.40;72.60
32296;DHT22;18781;51.550;5.418;2023-01-10T08:00:42;8.40;72.60
32296;DHT22;18781;51.550;5.418;2023-01-10T08:03:10;8.40;72.60
32296;DHT22;18781;51.550;5.418;2023-01-10T08:05:36;8.40;72.50
32296;DHT22;18781;51.550;5.418;2023-01-10T08:08:04;8.40;72.60
32296;DHT22;18781;51.550;5.418;2023-01-10T08:10:31;8.40;72.60
32296;DHT22;18781;51.550;5.418;2023-01-10T08:12:57;8.40;72.60
32296;DHT22;18781;51.550;5.418;2023-01-10T08:15:22;8.40;72.70
32296;DHT22;18781;51.550;5.418;2023-01-10T08:17:48;8.40;72.60
32296;DHT22;18781;51.550;5.418;2023-01-10T08:20:14;8.40;72.50
32296;DHT22;18781;51.550;5.418;2023-01-10T08:22:39;8.40;72.60
32296;DHT22;18781;51.550;5.418;2023-01-10T08:25:05;8.40;72.50
32296;DHT22;18781;51.550;5.418;2023-01-10T08:27:31;8.40;72.40
32296;DHT22;18781;51.550;5.418;2023-01-10T08:29:56;8.40;72.40
32296;DHT22;18781;51.550;5.418;2023-01-10T08:32:22;8.40;72.40
32296;DHT22;18781;51.550;5.418;2023-01-10T08:34:48;8.40;72.30
32296;DHT22;18781;51.550;5.418;2023-01-10T08:37:13;8.40;72.40
32296;DHT22;18781;51.550;5.418;2023-01-10T08:39:39;8.40;72.40
32296;DHT22;18781;51.550;5.418;2023-01-10T08:42:04;8.40;72.40
32296;DHT22;18781;51.550;5.418;2023-01-10T08:44:30;8.40;72.40
32296;DHT22;18781;51.550;5.418;2023-01-10T08:46:56;8.40;72.30
32296;DHT22;18781;51.550;5.418;2023-01-10T08:49:22;8.40;72.40
32296;DHT22;18781;51.550;5.418;2023-01-10T08:51:48;8.40;72.40
32296;DHT22;18781;51.550;5.418;2023-01-10T08:54:14;8.40;72.40
32296;DHT22;18781;51.550;5.418;2023-01-10T08:56:40;8.40;72.30
32296;DHT22;18781;51.550;5.418;2023-01-10T08:59:06;8.40;72.30
32296;DHT22;18781;51.550;5.418;2023-01-10T09:01:32;8.40;72.40
32296;DHT22;18781;51.550;5.418;2023-01-10T09:03:58;8.40;72.30
32296;DHT22;18781;51.550;5.418;2023-01-10T09:06:24;8.40;72.40
32296;DHT22;18781;51.550;5.418;2023-01-10T09:08:50;8.40;72.50
32296;DHT22;18781;51.550;5.418;2023-01-10T09:11:15;8.40;72.30
32296;DHT22;18781;51.550;5.418;2023-01-10T09:13:41;8.40;72.30
32296;DHT22;18781;51.550;5.418;2023-01-10T09:16:07;8.40;72.30
32296;DHT22;18781;51.550;5.418;2023-01-10T09:18:33;8.50;72.50
32296;DHT22;18781;51.550;5.418;2023-01-10T09:20:59;8.50;72.50
32296;DHT22;18781;51.550;5.418;2023-01-10T09:23:25;8.50;72.40
32296;DHT22;18781;51.550;5.418;2023-01-10T09:25:53;8.50;72.40
32296;DHT22;18781;51.550;5.418;2023-01-10T09:28:20;8.50;72.50
32296;DHT22;18781;51.550;5.418;2023-01-10T09:30:46;8.50;72.40
32296;DHT22;18781;51.550;5.418;2023-01-10T09:33:13;8.60;72.40
32296;DHT22;18781;51.550;5.418;2023-01-10T09:35:40;8.60;72.20
32296;DHT22;18781;51.550;5.418;2023-01-10T09:38:09;8.60;72.20
32296;DHT22;18781;51.550;5.418;2023-01-10T09:44:15;8.60;72.10
32296;DHT22;18781;51.550;5.418;2023-01-10T09:52:33;8.70;72.30
32296;DHT22;18781;51.550;5.418;2023-01-10T09:55:16;8.70;72.40
32296;DHT22;18781;51.550;5.418;2023-01-10T09:57:43;8.70;72.30
32296;DHT22;18781;51.550;5.418;2023-01-10T10:00:16;8.70;72.30
32296;DHT22;18781;51.550;5.418;2023-01-10T10:02:47;8.70;72.20
32296;DHT22;18781;51.550;5.418;2023-01-10T10:05:22;8.80;72.20
32296;DHT22;18781;51.550;5.418;2023-01-10T10:07:56;8.80;72.10
32296;DHT22;18781;51.550;5.418;2023-01-10T10:10:25;8.80;71.90
32296;DHT22;18781;51.550;5.418;2023-01-10T10:13:20;8.90;71.90
32296;DHT22;18781;51.550;5.418;2023-01-10T10:18:34;8.90;71.90
32296;DHT22;18781;51.550;5.418;2023-01-10T10:24:22;9.00;72.10
32296;DHT22;18781;51.550;5.418;2023-01-10T10:26:59;9.00;72.10
32296;DHT22;18781;51.550;5.418;2023-01-10T10:30:01;9.00;71.90
32296;DHT22;18781;51.550;5.418;2023-01-10T10:35:43;9.10;71.90
32296;DHT22;18781;51.550;5.418;2023-01-10T10:38:17;9.10;71.80
32296;DHT22;18781;51.550;5.418;2023-01-10T10:40:46;9.20;71.90
32296;DHT22;18781;51.550;5.418;2023-01-10T10:43:20;9.20;72.00
32296;DHT22;18781;51.550;5.418;2023-01-10T10:45:54;9.20;71.90
32296;DHT22;18781;51.550;5.418;2023-01-10T10:48:26;9.20;71.90
32296;DHT22;18781;51.550;5.418;2023-01-10T10:51:20;9.30;71.90
32296;DHT22;18781;51.550;5.418;2023-01-10T10:53:47;9.30;71.80
32296;DHT22;18781;51.550;5.418;2023-01-10T10:56:16;9.30;72.40
32296;DHT22;18781;51.550;5.418;2023-01-10T10:58:45;9.40;71.80
32296;DHT22;18781;51.550;5.418;2023-01-10T11:01:13;9.40;71.80
32296;DHT22;18781;51.550;5.418;2023-01-10T11:03:43;9.40;71.90
32296;DHT22;18781;51.550;5.418;2023-01-10T11:06:12;9.50;71.80
32296;DHT22;18781;51.550;5.418;2023-01-10T11:08:42;9.50;71.70
32296;DHT22;18781;51.550;5.418;2023-01-10T11:11:16;9.50;71.70
32296;DHT22;18781;51.550;5.418;2023-01-10T11:14:04;9.60;71.90
32296;DHT22;18781;51.550;5.418;2023-01-10T11:16:36;9.60;71.50
32296;DHT22;18781;51.550;5.418;2023-01-10T11:21:37;9.60;71.50
32296;DHT22;18781;51.550;5.418;2023-01-10T11:24:04;9.60;71.40
32296;DHT22;18781;51.550;5.418;2023-01-10T11:26:36;9.70;71.50
32296;DHT22;18781;51.550;5.418;2023-01-10T11:29:20;9.70;71.20
32296;DHT22;18781;51.550;5.418;2023-01-10T11:31:46;9.70;71.30
32296;DHT22;18781;51.550;5.418;2023-01-10T11:34:25;9.80;71.20
32296;DHT22;18781;51.550;5.418;2023-01-10T11:36:57;9.80;71.20
32296;DHT22;18781;51.550;5.418;2023-01-10T11:39:23;9.80;71.30
32296;DHT22;18781;51.550;5.418;2023-01-10T11:41:49;9.80;71.10
32296;DHT22;18781;51.550;5.418;2023-01-10T11:44:25;9.90;71.00
32296;DHT22;18781;51.550;5.418;2023-01-10T11:46:57;9.90;71.00
32296;DHT22;18781;51.550;5.418;2023-01-10T11:49:36;9.90;71.10
32296;DHT22;18781;51.550;5.418;2023-01-10T11:54:40;9.90;70.90
32296;DHT22;18781;51.550;5.418;2023-01-10T11:57:13;10.00;70.90
32296;DHT22;18781;51.550;5.418;2023-01-10T11:59:48;10.00;70.90
32296;DHT22;18781;51.550;5.418;2023-01-10T12:02:34;10.00;70.90
32296;DHT22;18781;51.550;5.418;2023-01-10T12:05:04;10.00;70.80
32296;DHT22;18781;51.550;5.418;2023-01-10T12:10:25;10.10;70.90
32296;DHT22;18781;51.550;5.418;2023-01-10T12:12:59;10.10;70.80
32296;DHT22;18781;51.550;5.418;2023-01-10T12:15:32;10.10;70.30
32296;DHT22;18781;51.550;5.418;2023-01-10T12:18:01;10.20;70.30
32296;DHT22;18781;51.550;5.418;2023-01-10T12:20:31;10.20;70.30
32296;DHT22;18781;51.550;5.418;2023-01-10T12:22:59;10.20;70.30
32296;DHT22;18781;51.550;5.418;2023-01-10T12:25:37;10.20;70.00
32296;DHT22;18781;51.550;5.418;2023-01-10T12:28:15;10.20;70.00
32296;DHT22;18781;51.550;5.418;2023-01-10T12:30:42;10.20;70.00
32296;DHT22;18781;51.550;5.418;2023-01-10T12:33:18;10.20;70.00
32296;DHT22;18781;51.550;5.418;2023-01-10T12:36:04;10.20;69.70
32296;DHT22;18781;51.550;5.418;2023-01-10T12:38:42;10.20;69.80
32296;DHT22;18781;51.550;5.418;2023-01-10T12:42:17;10.20;69.60
32296;DHT22;18781;51.550;5.418;2023-01-10T12:44:42;10.30;69.60
32296;DHT22;18781;51.550;5.418;2023-01-10T12:54:52;10.20;69.50
32296;DHT22;18781;51.550;5.418;2023-01-10T12:57:30;10.30;69.40
32296;DHT22;18781;51.550;5.418;2023-01-10T13:00:00;10.30;69.40
32296;DHT22;18781;51.550;5.418;2023-01-10T13:02:30;10.30;69.10
32296;DHT22;18781;51.550;5.418;2023-01-10T13:04:59;10.30;68.70
32296;DHT22;18781;51.550;5.418;2023-01-10T13:07:32;10.30;68.80
32296;DHT22;18781;51.550;5.418;2023-01-10T13:10:01;10.30;69.00
32296;DHT22;18781;51.550;5.418;2023-01-10T13:12:35;10.30;69.10
32296;DHT22;18781;51.550;5.418;2023-01-10T13:15:25;10.30;69.00
32296;DHT22;18781;51.550;5.418;2023-01-10T13:18:11;10.40;68.90
32296;DHT22;18781;51.550;5.418;2023-01-10T13:20:41;10.40;68.50
32296;DHT22;18781;51.550;5.418;2023-01-10T13:23:27;10.40;68.50
32296;DHT22;18781;51.550;5.418;2023-01-10T13:26:05;10.40;68.50
32296;DHT22;18781;51.550;5.418;2023-01-10T13:28:38;10.40;68.50
32296;DHT22;18781;51.550;5.418;2023-01-10T13:31:07;10.40;68.70
32296;DHT22;18781;51.550;5.418;2023-01-10T13:39:35;10.50;68.70
32296;DHT22;18781;51.550;5.418;2023-01-10T14:11:46;10.70;69.00
32296;DHT22;18781;51.550;5.418;2023-01-10T14:14:25;10.60;69.10
32296;DHT22;18781;51.550;5.418;2023-01-10T14:16:57;10.60;69.20
32296;DHT22;18781;51.550;5.418;2023-01-10T14:19:34;10.60;69.30
32296;DHT22;18781;51.550;5.418;2023-01-10T14:22:01;10.60;69.40
32296;DHT22;18781;51.550;5.418;2023-01-10T14:24:39;10.60;69.60
32296;DHT22;18781;51.550;5.418;2023-01-10T14:27:10;10.60;69.70
32296;DHT22;18781;51.550;5.418;2023-01-10T14:29:38;10.60;69.80
32296;DHT22;18781;51.550;5.418;2023-01-10T14:32:05;10.60;69.80
32296;DHT22;18781;51.550;5.418;2023-01-10T14:34:40;10.60;69.80
32296;DHT22;18781;51.550;5.418;2023-01-10T14:37:32;10.60;70.00
32296;DHT22;18781;51.550;5.418;2023-01-10T14:40:05;10.60;70.20
32296;DHT22;18781;51.550;5.418;2023-01-10T14:42:34;10.50;70.30
32296;DHT22;18781;51.550;5.418;2023-01-10T14:47:42;10.40;70.60
32296;DHT22;18781;51.550;5.418;2023-01-10T14:50:25;10.50;70.60
32296;DHT22;18781;51.550;5.418;2023-01-10T14:52:57;10.50;70.90
32296;DHT22;18781;51.550;5.418;2023-01-10T14:55:23;10.40;70.70
32296;DHT22;18781;51.550;5.418;2023-01-10T14:57:56;10.40;70.80
32296;DHT22;18781;51.550;5.418;2023-01-10T15:00:33;10.40;70.90
32296;DHT22;18781;51.550;5.418;2023-01-10T15:03:00;10.40;70.80
32296;DHT22;18781;51.550;5.418;2023-01-10T15:05:30;10.40;70.70
32296;DHT22;18781;51.550;5.418;2023-01-10T15:10:45;10.30;71.00
32296;DHT22;18781;51.550;5.418;2023-01-10T15:13:14;10.30;70.90
32296;DHT22;18781;51.550;5.418;2023-01-10T15:15:42;10.30;70.90
32296;DHT22;18781;51.550;5.418;2023-01-10T15:18:40;10.20;70.90
32296;DHT22;18781;51.550;5.418;2023-01-10T15:21:10;10.20;71.10
32296;DHT22;18781;51.550;5.418;2023-01-10T15:23:38;10.20;71.20
32296;DHT22;18781;51.550;5.418;2023-01-10T15:26:07;10.20;71.20
32296;DHT22;18781;51.550;5.418;2023-01-10T15:28:35;10.20;71.20
32296;DHT22;18781;51.550;5.418;2023-01-10T15:31:03;10.10;71.20
32296;DHT22;18781;51.550;5.418;2023-01-10T15:33:31;10.10;71.30
32296;DHT22;18781;51.550;5.418;2023-01-10T15:36:05;10.10;71.40
32296;DHT22;18781;51.550;5.418;2023-01-10T15:38:34;10.10;71.40
32296;DHT22;18781;51.550;5.418;2023-01-10T15:41:04;10.00;71.50
32296;DHT22;18781;51.550;5.418;2023-01-10T15:43:31;10.00;71.60
32296;DHT22;18781;51.550;5.418;2023-01-10T15:45:59;10.00;71.50
32296;DHT22;18781;51.550;5.418;2023-01-10T15:51:01;9.90;71.80
32296;DHT22;18781;51.550;5.418;2023-01-10T15:53:54;9.90;71.90
32296;DHT22;18781;51.550;5.418;2023-01-10T15:56:34;9.90;72.20
32296;DHT22;18781;51.550;5.418;2023-01-10T15:59:03;9.90;72.30
32296;DHT22;18781;51.550;5.418;2023-01-10T16:01:30;9.90;72.20
32296;DHT22;18781;51.550;5.418;2023-01-10T16:03:59;9.80;72.30
32296;DHT22;18781;51.550;5.418;2023-01-10T16:08:55;9.80;72.50
32296;DHT22;18781;51.550;5.418;2023-01-10T16:11:26;9.80;72.60
32296;DHT22;18781;51.550;5.418;2023-01-10T16:14:10;9.80;72.60
32296;DHT22;18781;51.550;5.418;2023-01-10T16:16:37;9.80;72.60
32296;DHT22;18781;51.550;5.418;2023-01-10T16:19:03;9.80;72.70
32296;DHT22;18781;51.550;5.418;2023-01-10T16:21:33;9.80;72.80
32296;DHT22;18781;51.550;5.418;2023-01-10T16:24:00;9.70;73.00
32296;DHT22;18781;51.550;5.418;2023-01-10T16:26:25;9.70;72.90
32296;DHT22;18781;51.550;5.418;2023-01-10T16:28:51;9.70;72.90
32296;DHT22;18781;51.550;5.418;2023-01-10T16:31:17;9.70;73.10
32296;DHT22;18781;51.550;5.418;2023-01-10T16:33:43;9.70;73.20
32296;DHT22;18781;51.550;5.418;2023-01-10T16:36:17;9.70;73.30
32296;DHT22;18781;51.550;5.418;2023-01-10T16:38:43;9.70;73.50
32296;DHT22;18781;51.550;5.418;2023-01-10T16:41:10;9.70;73.40
32296;DHT22;18781;51.550;5.418;2023-01-10T16:43:55;9.70;73.50
32296;DHT22;18781;51.550;5.418;2023-01-10T16:46:21;9.70;73.50
32296;DHT22;18781;51.550;5.418;2023-01-10T16:48:46;9.70;73.60
32296;DHT22;18781;51.550;5.418;2023-01-10T16:51:19;9.70;73.70
32296;DHT22;18781;51.550;5.418;2023-01-10T16:53:46;9.70;74.00
32296;DHT22;18781;51.550;5.418;2023-01-10T16:56:13;9.70;73.90
32296;DHT22;18781;51.550;5.418;2023-01-10T16:58:39;9.70;73.90
32296;DHT22;18781;51.550;5.418;2023-01-10T17:01:05;9.70;74.10
32296;DHT22;18781;51.550;5.418;2023-01-10T17:03:34;9.70;74.10
32296;DHT22;18781;51.550;5.418;2023-01-10T17:06:02;9.70;74.10
32296;DHT22;18781;51.550;5.418;2023-01-10T17:08:28;9.70;74.20
32296;DHT22;18781;51.550;5.418;2023-01-10T17:10:58;9.70;74.20
32296;DHT22;18781;51.550;5.418;2023-01-10T17:13:30;9.70;74.30
32296;DHT22;18781;51.550;5.418;2023-01-10T17:15:56;9.70;74.50
32296;DHT22;18781;51.550;5.418;2023-01-10T17:18:23;9.70;74.50
32296;DHT22;18781;51.550;5.418;2023-01-10T17:20:53;9.70;74.50
32296;DHT22;18781;51.550;5.418;2023-01-10T17:23:21;9.70;74.50
32296;DHT22;18781;51.550;5.418;2023-01-10T17:25:47;9.70;74.60
32296;DHT22;18781;51.550;5.418;2023-01-10T17:28:14;9.70;74.70
32296;DHT22;18781;51.550;5.418;2023-01-10T17:30:40;9.70;74.80
32296;DHT22;18781;51.550;5.418;2023-01-10T17:33:06;9.70;74.80
32296;DHT22;18781;51.550;5.418;2023-01-10T17:35:44;9.70;74.90
32296;DHT22;18781;51.550;5.418;2023-01-10T17:38:12;9.70;75.00
32296;DHT22;18781;51.550;5.418;2023-01-10T17:40:42;9.70;75.00
32296;DHT22;18781;51.550;5.418;2023-01-10T17:43:08;9.80;75.10
32296;DHT22;18781;51.550;5.418;2023-01-10T17:45:38;9.70;75.10
32296;DHT22;18781;51.550;5.418;2023-01-10T17:48:04;9.80;75.10
32296;DHT22;18781;51.550;5.418;2023-01-10T17:50:30;9.80;75.20
32296;DHT22;18781;51.550;5.418;2023-01-10T17:52:55;9.80;75.20
32296;DHT22;18781;51.550;5.418;2023-01-10T17:55:21;9.80;75.20
32296;DHT22;18781;51.550;5.418;2023-01-10T17:57:46;9.90;75.30